Time;durP1;ratioP1;P1;durP2;ratioP2;P2;SDS_P1;SDS_P2;PMS_P1;PMS_P2;Temp;Humidity;BMP_temperature;BMP_pressure;BME280_temperature;BME280_humidity;BME280_pressure;Samples;Min_cycle;Max_cycle;Signal;HPM_P1;HPM_P2
2021/05/01 00:00:57;;;;;;;29.75;20.20;;;5.20;99.90;;;;;;5068584;28;20211;-69
2021/05/01 00:03:23;;;;;;;23.63;19.17;;;5.20;99.90;;;;;;5070633;28;20257;-70
2021/05/01 00:05:49;;;;;;;28.48;21.13;;;5.20;99.90;;;;;;5071059;28;20234;-70
2021/05/01 00:08:17;;;;;;;27.88;21.77;;;5.20;99.90;;;;;;5066648;28;20250;-70
2021/05/01 00:10:43;;;;;;;27.10;19.98;;;5.20;99.90;;;;;;5067247;28;20278;-70
2021/05/01 00:13:09;;;;;;;27.65;20.80;;;5.20;99.90;;;;;;5067625;28;20204;-69
2021/05/01 00:15:36;;;;;;;25.70;19.23;;;5.30;99.90;;;;;;5069371;28;20211;-70
2021/05/01 00:18:02;;;;;;;25.70;20.90;;;5.20;99.90;;;;;;5070531;28;20223;-72
2021/05/01 00:20:28;;;;;;;28.00;20.52;;;5.20;99.90;;;;;;5070874;28;20498;-72
2021/05/01 00:22:54;;;;;;;31.05;21.92;;;5.10;99.90;;;;;;5143465;22;20715;-68
2021/05/01 00:25:21;;;;;;;27.20;20.48;;;5.20;99.90;;;;;;5070698;28;20677;-67
2021/05/01 00:27:48;;;;;;;30.60;22.17;;;5.20;99.90;;;;;;5070854;28;20204;-67
2021/05/01 00:30:14;;;;;;;29.70;22.30;;;5.20;99.90;;;;;;5085592;28;20224;-67
2021/05/01 00:32:41;;;;;;;28.88;20.75;;;5.10;99.90;;;;;;5090960;28;20204;-68
2021/05/01 00:35:08;;;;;;;29.55;22.75;;;5.20;99.90;;;;;;5090875;28;20203;-68
2021/05/01 00:37:34;;;;;;;27.63;20.92;;;5.20;99.90;;;;;;5091018;28;20223;-67
2021/05/01 00:40:00;;;;;;;25.83;19.95;;;5.20;99.90;;;;;;5090850;28;20219;-66
2021/05/01 00:42:28;;;;;;;31.25;22.15;;;5.20;99.90;;;;;;5091151;28;20208;-66
2021/05/01 00:44:55;;;;;;;31.60;22.98;;;5.30;99.90;;;;;;5091016;28;20211;-67
2021/05/01 00:47:21;;;;;;;28.33;21.10;;;5.30;99.90;;;;;;5090918;28;20206;-66
2021/05/01 00:49:48;;;;;;;28.15;21.85;;;5.30;99.90;;;;;;5090668;28;20716;-69
2021/05/01 00:52:14;;;;;;;27.08;21.08;;;5.40;99.90;;;;;;5090297;28;20200;-69
2021/05/01 00:54:40;;;;;;;27.48;20.40;;;5.40;99.90;;;;;;5090485;28;20200;-69
2021/05/01 00:57:07;;;;;;;31.65;21.15;;;5.50;99.90;;;;;;5090564;28;20600;-69
2021/05/01 00:59:34;;;;;;;29.73;21.58;;;5.60;99.90;;;;;;5090608;28;20306;-69
2021/05/01 01:02:01;;;;;;;27.15;21.00;;;5.50;99.90;;;;;;5090159;28;20203;-69
2021/05/01 01:04:27;;;;;;;30.10;21.13;;;5.50;99.90;;;;;;5090654;28;20208;-70
2021/05/01 01:06:54;;;;;;;31.45;22.17;;;5.50;99.90;;;;;;5090507;28;20241;-70
2021/05/01 01:09:20;;;;;;;31.27;22.10;;;5.50;99.90;;;;;;5075222;28;20217;-68
2021/05/01 01:11:46;;;;;;;29.75;23.08;;;5.60;99.90;;;;;;5069627;28;20200;-69
2021/05/01 01:14:13;;;;;;;29.60;22.38;;;5.60;99.90;;;;;;5070078;28;20200;-68
2021/05/01 01:16:44;;;;;;;30.55;22.25;;;5.70;99.90;;;;;;5070044;28;20215;-66
2021/05/01 01:19:10;;;;;;;31.10;22.02;;;5.70;99.90;;;;;;5070089;28;20315;-69
2021/05/01 01:21:43;;;;;;;28.90;22.65;;;5.70;99.90;;;;;;5069375;28;20211;-69
2021/05/01 01:24:11;;;;;;;28.00;20.13;;;5.70;99.90;;;;;;5070012;28;20211;-67
2021/05/01 01:26:38;;;;;;;28.40;21.75;;;5.80;99.90;;;;;;5069870;28;20205;-68
2021/05/01 01:29:05;;;;;;;31.27;22.05;;;5.80;99.90;;;;;;5070117;28;20224;-69
2021/05/01 01:31:31;;;;;;;27.80;20.13;;;5.80;99.90;;;;;;5069406;28;20207;-69
2021/05/01 01:33:59;;;;;;;29.52;22.15;;;5.80;99.90;;;;;;5069608;28;20260;-68
2021/05/01 01:36:25;;;;;;;30.00;21.27;;;5.80;99.90;;;;;;5069637;28;20197;-70
2021/05/01 01:38:51;;;;;;;31.23;23.15;;;5.80;99.90;;;;;;5069408;28;20235;-70
2021/05/01 01:41:19;;;;;;;32.55;22.73;;;5.70;99.90;;;;;;5069512;28;20204;-69
2021/05/01 01:43:45;;;;;;;30.92;22.35;;;5.80;99.90;;;;;;5069213;28;20205;-69
2021/05/01 01:46:11;;;;;;;29.30;20.92;;;5.80;99.90;;;;;;5070081;28;20200;-69
2021/05/01 01:48:38;;;;;;;27.48;20.85;;;5.80;99.90;;;;;;5069150;28;20223;-69
2021/05/01 01:51:04;;;;;;;30.02;21.05;;;5.80;99.90;;;;;;5068886;28;20204;-69
2021/05/01 01:53:30;;;;;;;25.98;20.10;;;5.90;99.90;;;;;;5069221;28;20231;-69
2021/05/01 01:55:57;;;;;;;36.22;23.00;;;5.80;99.90;;;;;;5069014;28;20200;-70
2021/05/01 01:58:24;;;;;;;28.92;21.23;;;5.90;99.90;;;;;;5069130;28;20224;-69
2021/05/01 02:00:52;;;;;;;28.13;21.50;;;5.90;99.90;;;;;;5068750;28;20200;-69
2021/05/01 02:03:18;;;;;;;28.15;21.63;;;5.90;99.90;;;;;;5069073;28;20231;-68
2021/05/01 02:05:45;;;;;;;28.75;21.25;;;6.00;99.90;;;;;;5069255;28;20196;-68
2021/05/01 02:08:11;;;;;;;30.60;22.98;;;6.00;99.90;;;;;;5069126;28;20204;-69
2021/05/01 02:10:38;;;;;;;30.50;23.45;;;6.00;99.90;;;;;;5068437;28;20783;-68
2021/05/01 02:13:05;;;;;;;31.60;22.30;;;6.00;99.90;;;;;;5069069;28;20200;-69
2021/05/01 02:15:33;;;;;;;29.10;22.65;;;6.00;99.90;;;;;;5068916;28;20211;-69
2021/05/01 02:18:01;;;;;;;26.40;21.02;;;5.90;99.90;;;;;;5068885;28;20774;-69
2021/05/01 02:20:29;;;;;;;28.85;21.65;;;5.90;99.90;;;;;;5068287;28;20220;-69
2021/05/01 02:22:56;;;;;;;30.15;22.08;;;5.90;99.90;;;;;;5068597;28;20209;-68
2021/05/01 02:25:23;;;;;;;30.02;23.15;;;6.00;99.90;;;;;;5068955;28;20204;-70
2021/05/01 02:27:49;;;;;;;28.85;21.58;;;6.00;99.90;;;;;;5068611;28;20583;-70
2021/05/01 02:30:18;;;;;;;33.30;22.85;;;6.00;99.90;;;;;;5067544;28;20734;-69
2021/05/01 02:32:46;;;;;;;32.15;21.65;;;5.90;99.90;;;;;;5068491;28;20254;-70
2021/05/01 02:35:15;;;;;;;27.92;22.73;;;6.00;99.90;;;;;;5068951;28;20204;-68
2021/05/01 02:37:42;;;;;;;30.48;21.98;;;5.90;99.90;;;;;;5068361;28;20220;-70
2021/05/01 02:40:10;;;;;;;33.35;24.08;;;5.90;99.90;;;;;;5068377;28;20746;-68
2021/05/01 02:42:37;;;;;;;30.48;22.73;;;6.00;99.90;;;;;;5068712;28;20211;-69
2021/05/01 02:45:05;;;;;;;35.65;23.42;;;6.00;99.90;;;;;;5068531;28;20208;-69
2021/05/01 02:47:31;;;;;;;31.38;21.58;;;6.00;99.90;;;;;;5068598;28;20836;-69
2021/05/01 02:49:58;;;;;;;34.10;23.42;;;6.00;99.90;;;;;;5068536;28;20591;-70
2021/05/01 02:52:24;;;;;;;28.90;22.42;;;6.10;99.90;;;;;;5068273;28;20204;-69
2021/05/01 02:54:51;;;;;;;32.28;24.05;;;6.10;99.90;;;;;;5068094;28;20616;-69
2021/05/01 02:57:17;;;;;;;26.98;22.50;;;6.10;99.90;;;;;;5068824;28;20231;-69
2021/05/01 02:59:43;;;;;;;31.98;22.92;;;6.10;99.90;;;;;;5068319;28;20227;-69
2021/05/01 03:02:09;;;;;;;32.50;21.65;;;6.10;99.90;;;;;;5068343;28;20209;-69
2021/05/01 03:04:36;;;;;;;35.13;23.15;;;6.10;99.90;;;;;;5068323;28;20204;-69
2021/05/01 03:07:03;;;;;;;28.95;21.13;;;6.10;99.90;;;;;;5068278;28;20200;-69
2021/05/01 03:09:29;;;;;;;29.58;22.33;;;6.00;99.90;;;;;;5068393;28;20586;-68
2021/05/01 03:11:55;;;;;;;30.98;24.20;;;6.00;99.90;;;;;;5067567;28;20211;-69
2021/05/01 03:14:25;;;;;;;30.70;23.17;;;6.00;99.90;;;;;;5068510;28;20211;-69
2021/05/01 03:16:51;;;;;;;34.20;23.65;;;6.00;99.90;;;;;;5068067;28;20231;-69
2021/05/01 03:19:17;;;;;;;34.58;22.48;;;6.00;99.90;;;;;;5068487;28;20262;-69
2021/05/01 03:21:44;;;;;;;30.88;23.25;;;6.10;99.90;;;;;;5067443;28;20209;-68
2021/05/01 03:24:12;;;;;;;32.03;23.13;;;6.10;99.90;;;;;;5068490;28;20215;-68
2021/05/01 03:26:38;;;;;;;35.17;24.85;;;6.10;99.90;;;;;;5067999;28;20285;-70
2021/05/01 03:29:05;;;;;;;31.15;23.60;;;6.10;99.90;;;;;;5068175;28;20232;-68
2021/05/01 03:31:31;;;;;;;34.35;25.05;;;6.00;99.90;;;;;;5067896;28;20310;-69
2021/05/01 03:33:57;;;;;;;34.50;25.42;;;6.00;99.90;;;;;;5068015;28;20258;-69
2021/05/01 03:36:24;;;;;;;33.90;23.83;;;6.00;99.90;;;;;;5068295;28;20207;-69
2021/05/01 03:38:50;;;;;;;32.10;22.73;;;6.00;99.90;;;;;;5067755;28;20243;-70
2021/05/01 03:41:17;;;;;;;32.17;23.80;;;6.00;99.90;;;;;;5068881;28;20208;-69
2021/05/01 03:43:43;;;;;;;34.53;23.85;;;6.00;99.90;;;;;;5071412;28;20208;-68
2021/05/01 03:46:09;;;;;;;34.08;25.17;;;6.10;99.90;;;;;;5071924;28;21113;-68
2021/05/01 03:48:36;;;;;;;33.67;23.90;;;6.20;99.90;;;;;;5071661;28;20234;-68
2021/05/01 03:51:04;;;;;;;34.20;24.10;;;6.20;99.90;;;;;;5071651;28;20208;-68
2021/05/01 03:53:30;;;;;;;32.22;24.90;;;6.20;99.90;;;;;;5072020;28;20231;-68
2021/05/01 03:55:56;;;;;;;31.30;22.95;;;6.10;99.90;;;;;;5071869;28;20684;-68
2021/05/01 03:58:23;;;;;;;34.53;25.05;;;6.20;99.90;;;;;;5071670;28;20224;-68
2021/05/01 04:00:49;;;;;;;32.45;23.98;;;6.20;99.90;;;;;;5070833;28;20726;-69
2021/05/01 04:03:16;;;;;;;31.05;23.52;;;6.20;99.90;;;;;;5071872;28;20209;-68
2021/05/01 04:05:42;;;;;;;40.60;27.17;;;6.20;99.90;;;;;;5071052;28;20211;-68
2021/05/01 04:08:08;;;;;;;35.70;24.60;;;6.10;99.90;;;;;;5071980;28;20724;-69
2021/05/01 04:10:34;;;;;;;37.15;25.13;;;6.10;99.90;;;;;;5071916;28;20220;-68
2021/05/01 04:13:01;;;;;;;32.22;23.70;;;6.10;99.90;;;;;;5071722;28;20581;-69
2021/05/01 04:15:28;;;;;;;36.30;26.05;;;6.10;99.90;;;;;;5071878;28;20207;-69
2021/05/01 04:17:54;;;;;;;37.63;26.45;;;6.10;99.90;;;;;;5071344;28;20227;-69
2021/05/01 04:20:20;;;;;;;34.47;24.60;;;6.20;99.90;;;;;;5071175;28;20228;-68
2021/05/01 04:22:47;;;;;;;30.80;22.40;;;6.20;99.90;;;;;;5071231;28;20207;-69
2021/05/01 04:25:13;;;;;;;34.67;22.92;;;6.10;99.90;;;;;;5071543;28;20204;-69
2021/05/01 04:27:40;;;;;;;33.25;23.48;;;6.20;99.90;;;;;;5071314;28;20204;-69
2021/05/01 04:30:08;;;;;;;35.92;24.63;;;6.20;99.90;;;;;;5071337;28;20224;-68
2021/05/01 04:32:35;;;;;;;36.40;24.23;;;6.20;99.90;;;;;;5071600;28;20207;-69
2021/05/01 04:35:02;;;;;;;38.42;25.85;;;6.20;99.90;;;;;;5071462;28;20200;-68
2021/05/01 04:37:28;;;;;;;36.13;25.58;;;6.20;99.90;;;;;;5071437;28;20220;-69
2021/05/01 04:39:54;;;;;;;37.67;26.65;;;6.30;99.90;;;;;;5070896;28;20311;-69
2021/05/01 04:42:20;;;;;;;32.30;22.75;;;6.30;99.90;;;;;;5070917;28;20205;-69
2021/05/01 04:44:47;;;;;;;33.55;24.58;;;6.40;99.90;;;;;;5071194;28;20212;-69
2021/05/01 04:47:15;;;;;;;35.33;24.00;;;6.40;99.90;;;;;;5071236;28;20199;-68
2021/05/01 04:49:42;;;;;;;33.70;23.48;;;6.40;99.90;;;;;;5070789;28;20239;-68
2021/05/01 04:52:08;;;;;;;38.25;23.63;;;6.40;99.90;;;;;;5070864;28;20201;-68
2021/05/01 04:54:35;;;;;;;39.92;25.13;;;6.40;99.90;;;;;;5070219;28;20204;-68
2021/05/01 04:57:01;;;;;;;36.80;25.80;;;6.40;99.90;;;;;;5070456;28;20314;-68
2021/05/01 04:59:27;;;;;;;38.40;27.08;;;6.40;99.90;;;;;;5071087;28;20711;-69
2021/05/01 05:01:53;;;;;;;36.20;26.48;;;6.40;99.90;;;;;;5070017;28;20212;-68
2021/05/01 05:04:20;;;;;;;40.63;27.15;;;6.50;99.90;;;;;;5070788;28;20247;-69
2021/05/01 05:06:47;;;;;;;40.00;26.42;;;6.50;99.90;;;;;;5070758;28;20204;-68
2021/05/01 05:09:13;;;;;;;34.97;25.40;;;6.60;99.90;;;;;;5070582;28;20274;-69
2021/05/01 05:11:39;;;;;;;38.28;27.77;;;6.70;99.90;;;;;;5070080;28;20210;-69
2021/05/01 05:14:05;;;;;;;35.75;26.75;;;6.70;99.90;;;;;;5070411;28;20200;-69
2021/05/01 05:16:32;;;;;;;36.67;26.80;;;6.60;99.90;;;;;;5070614;28;20211;-68
2021/05/01 05:18:58;;;;;;;37.88;25.38;;;6.70;99.90;;;;;;5069915;28;20232;-69
2021/05/01 05:21:24;;;;;;;37.72;26.90;;;6.70;99.90;;;;;;5070027;28;20227;-69
2021/05/01 05:23:51;;;;;;;39.03;25.65;;;6.70;99.90;;;;;;5070156;28;20250;-69
2021/05/01 05:26:17;;;;;;;37.10;24.88;;;6.70;99.90;;;;;;5070416;28;20204;-69
2021/05/01 05:28:44;;;;;;;32.88;23.83;;;6.70;99.90;;;;;;5070031;28;20551;-68
2021/05/01 05:31:10;;;;;;;33.08;23.00;;;6.70;99.90;;;;;;5069865;28;20201;-69
2021/05/01 05:33:36;;;;;;;37.78;27.02;;;6.80;99.90;;;;;;5069833;28;20675;-68
2021/05/01 05:36:03;;;;;;;34.88;24.10;;;6.90;99.90;;;;;;5069891;28;20204;-68
2021/05/01 05:38:29;;;;;;;31.95;23.90;;;6.90;99.90;;;;;;5070225;28;20585;-69
2021/05/01 05:40:56;;;;;;;31.40;24.10;;;7.00;99.90;;;;;;5069465;28;20204;-69
2021/05/01 05:43:22;;;;;;;34.90;23.85;;;7.10;99.90;;;;;;5070300;28;20201;-68
2021/05/01 05:45:48;;;;;;;31.10;24.08;;;7.10;99.90;;;;;;5069925;28;20204;-68
2021/05/01 05:48:15;;;;;;;30.88;21.75;;;7.20;99.90;;;;;;5069800;28;20201;-68
2021/05/01 05:50:41;;;;;;;31.27;23.27;;;7.20;99.90;;;;;;5069439;28;20228;-68
2021/05/01 05:53:07;;;;;;;31.33;24.63;;;7.30;99.90;;;;;;5069710;28;20675;-68
2021/05/01 05:55:33;;;;;;;29.90;22.27;;;7.30;99.90;;;;;;5069763;28;20204;-69
2021/05/01 05:58:00;;;;;;;31.27;22.85;;;7.30;99.90;;;;;;5069475;28;20773;-69
2021/05/01 06:00:27;;;;;;;31.65;23.55;;;7.30;99.90;;;;;;5069251;28;20236;-69
2021/05/01 06:02:53;;;;;;;28.05;22.52;;;7.30;99.90;;;;;;5069366;28;20211;-68
2021/05/01 06:05:26;;;;;;;33.90;25.08;;;7.30;99.90;;;;;;5068172;28;20457;-67
2021/05/01 06:07:56;;;;;;;31.38;23.75;;;7.40;99.90;;;;;;5069416;28;20200;-67
2021/05/01 06:10:23;;;;;;;26.98;21.15;;;7.30;99.90;;;;;;5068809;28;20315;-68
2021/05/01 06:12:52;;;;;;;30.02;22.60;;;7.30;99.90;;;;;;5069174;28;20545;-68
2021/05/01 06:15:20;;;;;;;31.15;24.17;;;7.30;99.90;;;;;;5069643;28;20208;-66
2021/05/01 06:17:49;;;;;;;32.47;24.20;;;7.30;99.90;;;;;;5068985;28;20325;-68
2021/05/01 06:20:15;;;;;;;32.97;22.90;;;7.30;99.90;;;;;;5068915;28;20229;-68
2021/05/01 06:22:42;;;;;;;25.95;19.35;;;7.30;99.90;;;;;;5144969;22;20224;-72
2021/05/01 06:25:11;;;;;;;25.98;21.80;;;7.30;99.90;;;;;;5069152;28;20572;-72
2021/05/01 06:27:38;;;;;;;29.70;21.23;;;7.30;99.90;;;;;;5069654;28;20208;-71
2021/05/01 06:30:06;;;;;;;32.88;23.08;;;7.30;99.90;;;;;;5084341;28;20226;-71
2021/05/01 06:32:33;;;;;;;29.95;21.25;;;7.30;99.90;;;;;;5089828;28;20699;-71
2021/05/01 06:35:00;;;;;;;28.90;21.85;;;7.30;99.90;;;;;;5089939;28;20199;-71
2021/05/01 06:37:28;;;;;;;29.30;20.67;;;7.40;99.90;;;;;;5089968;28;20226;-71
2021/05/01 06:39:57;;;;;;;24.92;20.73;;;7.50;99.90;;;;;;5089546;28;20224;-72
2021/05/01 06:42:25;;;;;;;30.23;20.50;;;7.50;99.90;;;;;;5090646;28;20697;-72
2021/05/01 06:44:57;;;;;;;26.80;19.85;;;7.50;99.90;;;;;;5089223;28;20231;-71
2021/05/01 06:47:25;;;;;;;24.75;19.80;;;7.50;99.90;;;;;;5089489;28;20215;-72
2021/05/01 06:49:57;;;;;;;26.02;20.58;;;7.40;99.90;;;;;;5089294;28;20571;-71
2021/05/01 06:52:24;;;;;;;28.40;19.90;;;7.40;99.90;;;;;;5088505;28;20203;-72
2021/05/01 06:54:52;;;;;;;29.50;19.60;;;7.50;99.90;;;;;;5088411;28;20203;-71
2021/05/01 06:57:23;;;;;;;27.90;21.58;;;7.50;99.90;;;;;;5088511;28;20694;-72
2021/05/01 06:59:53;;;;;;;30.95;23.73;;;7.50;99.90;;;;;;5089207;28;20227;-71
2021/05/01 07:02:24;;;;;;;35.28;22.70;;;7.40;99.90;;;;;;5088566;28;20203;-71
2021/05/01 07:04:52;;;;;;;31.42;23.45;;;7.50;99.90;;;;;;5074246;28;20200;-71
2021/05/01 07:07:21;;;;;;;29.63;23.40;;;7.50;99.90;;;;;;5067080;28;20292;-71
2021/05/01 07:09:48;;;;;;;31.63;23.90;;;7.60;99.90;;;;;;5068749;28;20216;-71
2021/05/01 07:12:14;;;;;;;29.55;23.17;;;7.80;99.90;;;;;;5067947;28;20671;-72
2021/05/01 07:14:41;;;;;;;32.92;24.73;;;7.80;99.90;;;;;;5068636;28;20196;-72
2021/05/01 07:17:07;;;;;;;32.03;24.88;;;7.80;99.90;;;;;;5070874;28;20230;-72
2021/05/01 07:19:34;;;;;;;31.48;24.75;;;7.90;99.90;;;;;;5072813;28;20221;-74
2021/05/01 07:22:01;;;;;;;33.88;24.63;;;8.00;99.90;;;;;;5071973;28;20683;-73
2021/05/01 07:24:28;;;;;;;32.25;25.55;;;8.00;99.90;;;;;;5072329;28;20204;-71
2021/05/01 07:26:55;;;;;;;31.10;22.48;;;8.00;99.90;;;;;;5072451;28;20207;-73
2021/05/01 07:29:22;;;;;;;29.00;23.27;;;7.90;99.90;;;;;;5072547;28;20220;-72
2021/05/01 07:31:51;;;;;;;33.95;23.80;;;7.90;99.90;;;;;;5071672;28;20245;-72
2021/05/01 07:34:21;;;;;;;29.92;23.83;;;7.80;99.90;;;;;;5072059;28;20753;-71
2021/05/01 07:36:50;;;;;;;30.65;22.90;;;7.80;99.90;;;;;;5072431;28;20209;-71
2021/05/01 07:39:17;;;;;;;34.40;24.92;;;7.80;99.90;;;;;;5072240;28;20227;-71
2021/05/01 07:41:46;;;;;;;30.60;23.98;;;7.70;99.90;;;;;;5071757;28;20197;-72
2021/05/01 07:44:13;;;;;;;27.88;22.30;;;7.70;99.90;;;;;;5071749;28;20208;-72
2021/05/01 07:46:40;;;;;;;28.80;23.23;;;7.70;99.90;;;;;;5072092;28;20204;-70
2021/05/01 07:49:06;;;;;;;30.08;22.85;;;7.70;99.90;;;;;;5071853;28;20216;-71
2021/05/01 07:51:35;;;;;;;33.05;23.85;;;7.80;99.90;;;;;;5071873;28;20201;-73
2021/05/01 07:54:01;;;;;;;30.45;22.45;;;8.00;99.90;;;;;;5071703;28;20312;-72
2021/05/01 07:56:28;;;;;;;29.40;23.13;;;8.00;99.90;;;;;;5072020;28;20912;-71
2021/05/01 07:58:55;;;;;;;28.85;23.30;;;8.10;99.90;;;;;;5071658;28;20227;-71
2021/05/01 08:01:22;;;;;;;29.50;22.02;;;8.00;99.90;;;;;;5071554;28;20200;-71
2021/05/01 08:03:48;;;;;;;31.92;22.88;;;8.00;99.90;;;;;;5071565;28;20821;-71
2021/05/01 08:06:15;;;;;;;28.90;22.90;;;8.00;99.90;;;;;;5071730;28;20204;-71
2021/05/01 08:08:41;;;;;;;31.35;22.30;;;8.00;99.90;;;;;;5072029;28;20204;-71
2021/05/01 08:11:07;;;;;;;30.42;23.92;;;7.90;99.90;;;;;;5058772;28;20201;-71
2021/05/01 08:13:33;;;;;;;28.35;23.48;;;7.90;99.90;;;;;;5071400;28;20200;-71
2021/05/01 08:16:01;;;;;;;28.70;22.30;;;7.90;99.90;;;;;;5070682;28;20204;-74
2021/05/01 08:18:27;;;;;;;27.90;22.48;;;7.90;99.90;;;;;;5072225;28;20224;-72
2021/05/01 08:20:53;;;;;;;30.63;22.35;;;7.80;99.90;;;;;;5071342;28;20203;-71
2021/05/01 08:23:19;;;;;;;27.90;21.63;;;7.80;99.90;;;;;;5071711;28;20212;-70
2021/05/01 08:25:45;;;;;;;27.27;22.70;;;7.80;99.90;;;;;;5071813;28;20200;-71
2021/05/01 08:28:12;;;;;;;30.35;23.67;;;7.90;99.90;;;;;;5070161;28;20231;-72
2021/05/01 08:30:38;;;;;;;29.75;22.73;;;8.00;99.90;;;;;;5071989;28;20221;-71
2021/05/01 08:33:05;;;;;;;28.10;21.73;;;8.10;99.90;;;;;;5066755;28;20200;-71
2021/05/01 08:35:31;;;;;;;31.45;22.75;;;8.10;99.90;;;;;;5068392;28;20212;-72
2021/05/01 08:37:58;;;;;;;29.38;21.90;;;8.10;99.90;;;;;;5068736;28;20216;-73
2021/05/01 08:40:24;;;;;;;26.58;20.75;;;8.10;99.90;;;;;;5068597;28;20216;-72
2021/05/01 08:42:51;;;;;;;25.77;21.25;;;8.20;99.90;;;;;;5068686;28;20608;-71
2021/05/01 08:45:20;;;;;;;28.45;21.27;;;8.10;99.90;;;;;;5068261;28;20204;-73
2021/05/01 08:47:48;;;;;;;27.83;22.25;;;8.10;99.90;;;;;;5068597;28;20208;-72
2021/05/01 08:50:36;;;;;;;28.98;21.40;;;8.10;99.90;;;;;;5068060;28;20221;-72
2021/05/01 08:53:03;;;;;;;26.63;20.00;;;8.10;99.90;;;;;;5079834;28;20579;-73
2021/05/01 08:55:34;;;;;;;23.80;20.35;;;8.20;99.90;;;;;;5087824;28;20207;-72
2021/05/01 08:58:02;;;;;;;24.10;19.70;;;8.20;99.90;;;;;;5088754;28;20215;-73
2021/05/01 09:00:28;;;;;;;27.48;21.00;;;8.30;99.90;;;;;;5088508;28;20212;-71
2021/05/01 09:02:56;;;;;;;28.75;21.70;;;8.20;99.90;;;;;;5087994;28;20204;-72
2021/05/01 09:05:25;;;;;;;26.15;19.88;;;8.30;99.90;;;;;;5087691;28;20302;-71
2021/05/01 09:07:53;;;;;;;27.90;20.73;;;8.50;99.90;;;;;;5087818;28;20208;-74
2021/05/01 09:10:19;;;;;;;23.17;19.63;;;8.70;99.90;;;;;;5080800;28;20318;-75
2021/05/01 09:12:48;;;;;;;26.15;19.95;;;8.80;99.90;;;;;;5083089;28;20204;-71
2021/05/01 09:15:20;;;;;;;22.90;18.85;;;9.10;99.90;;;;;;5083640;28;20213;-73
2021/05/01 09:17:48;;;;;;;23.83;18.05;;;9.30;99.90;;;;;;5082987;28;20277;-72
2021/05/01 09:20:16;;;;;;;24.17;18.92;;;9.40;99.90;;;;;;5082889;28;20231;-71
2021/05/01 09:22:58;;;;;;;22.80;17.85;;;9.50;99.90;;;;;;5082611;28;20212;-72
2021/05/01 09:25:26;;;;;;;23.40;18.27;;;9.70;99.90;;;;;;5080843;28;20398;-73
2021/05/01 09:28:05;;;;;;;23.85;19.30;;;9.60;99.90;;;;;;5080708;28;20645;-72
2021/05/01 09:30:33;;;;;;;22.27;17.02;;;9.60;99.90;;;;;;5083552;28;20318;-72
2021/05/01 09:33:24;;;;;;;22.90;18.77;;;9.70;99.90;;;;;;5065662;28;20296;-70
2021/05/01 09:36:00;;;;;;;20.92;17.52;;;9.70;99.90;;;;;;5060487;28;20399;-71
2021/05/01 09:38:34;;;;;;;20.52;17.70;;;9.50;99.90;;;;;;5062381;28;20241;-70
2021/05/01 09:41:08;;;;;;;19.42;15.98;;;9.40;99.90;;;;;;5055198;28;20213;-71
2021/05/01 09:43:35;;;;;;;17.67;15.10;;;9.50;99.90;;;;;;5051804;28;20653;-70
2021/05/01 09:46:14;;;;;;;19.42;15.52;;;9.60;99.90;;;;;;5060871;28;20196;-71
2021/05/01 09:48:41;;;;;;;22.80;18.33;;;9.90;99.90;;;;;;5063008;28;20200;-70
2021/05/01 09:51:07;;;;;;;20.38;17.50;;;10.10;99.90;;;;;;5063489;28;20324;-72
2021/05/01 09:53:38;;;;;;;21.20;16.25;;;10.10;99.90;;;;;;5063787;28;20211;-72
2021/05/01 09:56:11;;;;;;;20.67;17.60;;;10.10;99.90;;;;;;5060264;28;20549;-71
2021/05/01 09:58:51;;;;;;;20.08;17.73;;;10.20;99.90;;;;;;5063060;28;20224;-70
2021/05/01 10:01:19;;;;;;;19.80;17.40;;;10.40;99.90;;;;;;5060157;28;20611;-72
2021/05/01 10:03:46;;;;;;;20.05;16.83;;;10.70;99.90;;;;;;5064173;28;20711;-71
2021/05/01 10:06:15;;;;;;;18.52;15.40;;;11.10;99.90;;;;;;5064950;28;20204;-71
2021/05/01 10:08:43;;;;;;;17.67;15.55;;;11.50;99.90;;;;;;5064079;28;20283;-71
2021/05/01 10:11:12;;;;;;;18.63;16.20;;;11.70;99.90;;;;;;5063558;28;20205;-72
2021/05/01 10:13:51;;;;;;;20.60;15.20;;;11.80;99.90;;;;;;5064036;28;20236;-72
2021/05/01 10:16:21;;;;;;;19.02;15.73;;;12.00;99.90;;;;;;5060823;28;20208;-72
2021/05/01 10:19:10;;;;;;;17.73;15.00;;;12.10;99.90;;;;;;5063822;28;20236;-71
2021/05/01 10:21:39;;;;;;;20.58;17.15;;;11.90;99.90;;;;;;5062757;28;20830;-70
2021/05/01 10:24:09;;;;;;;19.13;16.20;;;11.80;99.90;;;;;;5059566;28;20595;-72
2021/05/01 10:26:43;;;;;;;16.70;14.95;;;11.70;99.90;;;;;;5061952;28;20413;-70
2021/05/01 10:29:23;;;;;;;16.15;13.82;;;11.70;99.90;;;;;;5063942;28;20235;-71
2021/05/01 10:31:54;;;;;;;18.70;16.40;;;11.60;99.90;;;;;;5062312;28;20208;-70
2021/05/01 10:34:23;;;;;;;18.48;16.27;;;11.50;99.90;;;;;;5060800;28;20549;-70
2021/05/01 10:36:52;;;;;;;18.77;16.10;;;11.40;99.90;;;;;;5063538;28;20204;-72
2021/05/01 10:39:20;;;;;;;17.85;16.00;;;11.30;99.90;;;;;;5061668;28;20248;-71
2021/05/01 10:42:01;;;;;;;17.60;15.45;;;11.20;99.90;;;;;;5062891;28;20212;-70
2021/05/01 10:44:29;;;;;;;18.23;15.48;;;11.20;99.90;;;;;;5062765;28;20204;-71
2021/05/01 10:47:09;;;;;;;18.77;15.90;;;11.30;99.90;;;;;;5063206;28;20218;-70
2021/05/01 10:49:36;;;;;;;19.95;15.20;;;11.50;99.90;;;;;;5059704;28;20730;-71
2021/05/01 10:52:13;;;;;;;17.83;15.75;;;11.70;99.90;;;;;;5060686;28;20255;-71
2021/05/01 10:54:56;;;;;;;19.40;15.43;;;11.70;99.90;;;;;;5060705;28;20204;-70
2021/05/01 10:57:23;;;;;;;18.70;15.45;;;11.60;99.90;;;;;;5059314;28;20257;-73
2021/05/01 10:59:58;;;;;;;18.77;16.73;;;11.60;99.90;;;;;;5062105;28;20252;-73
2021/05/01 11:02:35;;;;;;;17.65;15.82;;;11.30;99.90;;;;;;5060221;28;20575;-74
2021/05/01 11:05:03;;;;;;;19.20;15.38;;;11.30;99.90;;;;;;5061855;28;20218;-72
2021/05/01 11:07:43;;;;;;;21.20;18.05;;;11.20;99.90;;;;;;5061839;28;20389;-71
2021/05/01 11:10:14;;;;;;;19.10;16.75;;;11.20;99.90;;;;;;5061608;28;20277;-73
2021/05/01 11:12:50;;;;;;;20.92;17.98;;;11.10;99.90;;;;;;5058381;28;20270;-71
2021/05/01 11:15:16;;;;;;;21.27;18.65;;;11.10;99.90;;;;;;5061535;28;20251;-73
2021/05/01 11:17:50;;;;;;;21.73;19.45;;;11.10;99.90;;;;;;5058789;28;20200;-72
2021/05/01 11:20:19;;;;;;;21.73;17.27;;;11.20;99.90;;;;;;5060552;28;20223;-72
2021/05/01 11:22:48;;;;;;;20.55;18.33;;;11.30;99.90;;;;;;5058007;28;20228;-73
2021/05/01 11:25:17;;;;;;;20.57;17.80;;;11.20;99.90;;;;;;5061447;28;20249;-74
2021/05/01 11:27:46;;;;;;;21.70;19.25;;;11.30;99.90;;;;;;5062362;28;20929;-71
2021/05/01 11:30:14;;;;;;;21.55;18.75;;;11.30;99.90;;;;;;5060853;28;20601;-74
2021/05/01 11:32:41;;;;;;;21.60;18.02;;;11.40;99.90;;;;;;5059822;28;20223;-73
2021/05/01 11:35:10;;;;;;;21.23;18.90;;;11.40;99.90;;;;;;5062171;28;20213;-71
2021/05/01 11:37:38;;;;;;;22.73;18.70;;;11.50;99.90;;;;;;5060619;28;20852;-73
2021/05/01 11:40:06;;;;;;;22.20;19.90;;;11.60;99.90;;;;;;5061447;28;20278;-72
2021/05/01 11:42:35;;;;;;;22.48;19.67;;;11.70;99.90;;;;;;5060662;28;20215;-72
2021/05/01 11:45:06;;;;;;;21.50;19.15;;;11.60;99.90;;;;;;5059013;28;20208;-73
2021/05/01 11:47:33;;;;;;;24.17;18.70;;;11.70;99.90;;;;;;5060924;28;20196;-72
2021/05/01 11:50:00;;;;;;;21.93;19.60;;;11.90;99.90;;;;;;5060883;28;20659;-73
2021/05/01 11:52:49;;;;;;;19.20;16.67;;;11.90;99.90;;;;;;5060425;28;20492;-73
2021/05/01 11:55:24;;;;;;;23.37;19.70;;;12.00;99.90;;;;;;5061847;28;20558;-73
2021/05/01 11:57:55;;;;;;;24.03;19.10;;;12.00;99.90;;;;;;5061901;28;20482;-73
2021/05/01 12:00:33;;;;;;;23.90;19.42;;;11.90;99.90;;;;;;5060936;28;21098;-72
2021/05/01 12:02:59;;;;;;;25.13;20.00;;;11.90;99.90;;;;;;5064041;28;20575;-72
2021/05/01 12:05:29;;;;;;;22.02;19.67;;;12.00;99.90;;;;;;5065864;28;20473;-75
2021/05/01 12:08:00;;;;;;;21.55;19.13;;;11.90;99.90;;;;;;5066087;28;20253;-73
2021/05/01 12:10:27;;;;;;;22.27;18.77;;;12.00;99.90;;;;;;5064182;28;20220;-72
2021/05/01 12:12:59;;;;;;;22.20;19.47;;;12.20;99.90;;;;;;5065211;28;20523;-72
2021/05/01 12:15:32;;;;;;;21.50;18.03;;;12.30;99.90;;;;;;5061843;28;20462;-74
2021/05/01 12:17:59;;;;;;;20.53;18.33;;;12.20;99.90;;;;;;5062502;28;20529;-72
2021/05/01 12:20:28;;;;;;;23.43;18.83;;;12.20;99.90;;;;;;5064213;28;20489;-74
2021/05/01 12:22:55;;;;;;;21.70;18.37;;;12.10;99.90;;;;;;5065282;28;20516;-71
2021/05/01 12:25:45;;;;;;;20.93;18.07;;;12.00;99.90;;;;;;5063998;28;20466;-73
2021/05/01 12:28:13;;;;;;;21.60;17.90;;;12.10;99.90;;;;;;5063275;28;20477;-73
2021/05/01 12:30:49;;;;;;;23.67;18.03;;;12.00;99.90;;;;;;5063991;28;20478;-72
2021/05/01 12:33:52;;;;;;;22.90;18.27;;;11.90;99.90;;;;;;5065729;28;20906;-73
2021/05/01 12:36:28;;;;;;;22.92;15.90;;;12.00;99.90;;;;;;5064827;28;20466;-75
2021/05/01 12:38:57;;;;;;;21.93;18.53;;;12.10;99.90;;;;;;5060003;28;20239;-73
2021/05/01 12:41:29;;;;;;;23.20;18.10;;;12.20;99.90;;;;;;5064426;28;20497;-73